sensor_id;sensor_type;location;lat;lon;timestamp;pressure;altitude;pressure_sealevel;temperature;humidity
73501;BME280;61721;42.206;25.320;2023-06-10T00:01:07;98965.69;;;19.61;56.25
73501;BME280;61721;42.206;25.320;2023-06-10T00:03:46;98959.41;;;20.01;55.78
73501;BME280;61721;42.206;25.320;2023-06-10T00:06:22;98963.31;;;20.05;55.49
73501;BME280;61721;42.206;25.320;2023-06-10T00:08:58;98966.78;;;20.00;55.74
73501;BME280;61721;42.206;25.320;2023-06-10T00:11:37;98966.59;;;19.78;56.18
73501;BME280;61721;42.206;25.320;2023-06-10T00:14:13;98967.22;;;19.45;56.29
73501;BME280;61721;42.206;25.320;2023-06-10T00:16:49;98969.72;;;19.47;55.94
73501;BME280;61721;42.206;25.320;2023-06-10T00:19:28;98974.94;;;19.49;55.99
73501;BME280;61721;42.206;25.320;2023-06-10T00:22:05;98966.97;;;19.47;55.95
73501;BME280;61721;42.206;25.320;2023-06-10T00:24:42;98975.06;;;19.42;56.10
73501;BME280;61721;42.206;25.320;2023-06-10T00:27:19;98973.63;;;19.51;55.66
73501;BME280;61721;42.206;25.320;2023-06-10T00:29:55;98971.38;;;19.71;55.27
73501;BME280;61721;42.206;25.320;2023-06-10T00:32:31;98975.75;;;19.49;55.69
73501;BME280;61721;42.206;25.320;2023-06-10T00:35:10;98982.19;;;19.55;55.79
73501;BME280;61721;42.206;25.320;2023-06-10T00:37:45;98970.06;;;19.39;56.12
73501;BME280;61721;42.206;25.320;2023-06-10T00:40:21;98963.78;;;19.38;56.60
73501;BME280;61721;42.206;25.320;2023-06-10T00:42:58;98960.72;;;19.58;55.51
73501;BME280;61721;42.206;25.320;2023-06-10T00:45:40;98951.56;;;19.64;55.44
73501;BME280;61721;42.206;25.320;2023-06-10T00:48:16;98954.41;;;19.46;56.20
73501;BME280;61721;42.206;25.320;2023-06-10T00:50:55;98953.09;;;19.49;55.98
73501;BME280;61721;42.206;25.320;2023-06-10T00:53:32;98948.22;;;19.39;56.27
73501;BME280;61721;42.206;25.320;2023-06-10T00:56:09;98951.06;;;19.44;56.22
73501;BME280;61721;42.206;25.320;2023-06-10T00:58:45;98952.38;;;19.65;55.64
73501;BME280;61721;42.206;25.320;2023-06-10T01:01:23;98959.84;;;19.69;55.51
73501;BME280;61721;42.206;25.320;2023-06-10T01:03:59;98956.91;;;19.59;56.27
73501;BME280;61721;42.206;25.320;2023-06-10T01:06:46;98956.75;;;19.77;55.33
73501;BME280;61721;42.206;25.320;2023-06-10T01:09:33;98951.44;;;19.36;56.81
73501;BME280;61721;42.206;25.320;2023-06-10T01:12:18;98948.47;;;19.26;57.22
73501;BME280;61721;42.206;25.320;2023-06-10T01:14:55;98957.63;;;19.31;57.20
73501;BME280;61721;42.206;25.320;2023-06-10T01:17:32;98956.31;;;19.10;57.75
73501;BME280;61721;42.206;25.320;2023-06-10T01:20:08;98959.03;;;19.10;57.47
73501;BME280;61721;42.206;25.320;2023-06-10T01:22:47;98952.63;;;19.17;57.48
73501;BME280;61721;42.206;25.320;2023-06-10T01:25:23;98958.69;;;19.07;58.07
73501;BME280;61721;42.206;25.320;2023-06-10T01:28:02;98961.19;;;19.20;57.34
73501;BME280;61721;42.206;25.320;2023-06-10T01:30:45;98966.63;;;18.55;60.00
73501;BME280;61721;42.206;25.320;2023-06-10T01:33:26;98967.56;;;18.91;58.43
73501;BME280;61721;42.206;25.320;2023-06-10T01:36:03;98960.94;;;19.10;57.82
73501;BME280;61721;42.206;25.320;2023-06-10T01:38:43;98962.94;;;19.38;57.27
73501;BME280;61721;42.206;25.320;2023-06-10T01:41:27;98958.34;;;19.15;58.01
73501;BME280;61721;42.206;25.320;2023-06-10T01:44:04;98956.19;;;19.17;57.75
73501;BME280;61721;42.206;25.320;2023-06-10T01:46:40;98957.97;;;19.11;57.61
73501;BME280;61721;42.206;25.320;2023-06-10T01:49:16;98960.81;;;18.93;58.51
73501;BME280;61721;42.206;25.320;2023-06-10T01:51:54;98960.09;;;18.86;58.65
73501;BME280;61721;42.206;25.320;2023-06-10T01:54:33;98963.78;;;18.92;58.46
73501;BME280;61721;42.206;25.320;2023-06-10T01:57:09;98964.13;;;18.84;58.80
73501;BME280;61721;42.206;25.320;2023-06-10T01:59:45;98968.88;;;18.88;58.16
73501;BME280;61721;42.206;25.320;2023-06-10T02:02:22;98973.81;;;18.68;59.23
73501;BME280;61721;42.206;25.320;2023-06-10T02:04:57;98976.69;;;18.85;58.62
73501;BME280;61721;42.206;25.320;2023-06-10T02:07:33;98977.25;;;18.75;59.00
73501;BME280;61721;42.206;25.320;2023-06-10T02:10:13;98985.38;;;19.05;57.80
73501;BME280;61721;42.206;25.320;2023-06-10T02:12:49;98982.53;;;19.23;57.52
73501;BME280;61721;42.206;25.320;2023-06-10T02:15:25;98986.16;;;18.82;58.45
73501;BME280;61721;42.206;25.320;2023-06-10T02:18:01;98987.84;;;18.83;59.07
73501;BME280;61721;42.206;25.320;2023-06-10T02:20:37;98983.53;;;18.64;58.99
73501;BME280;61721;42.206;25.320;2023-06-10T02:23:13;98980.34;;;18.78;58.70
73501;BME280;61721;42.206;25.320;2023-06-10T02:25:52;98986.16;;;18.82;58.62
73501;BME280;61721;42.206;25.320;2023-06-10T02:28:28;98988.91;;;18.82;58.45
73501;BME280;61721;42.206;25.320;2023-06-10T02:31:04;98999.56;;;18.84;58.99
73501;BME280;61721;42.206;25.320;2023-06-10T02:33:40;99002.94;;;19.21;58.02
73501;BME280;61721;42.206;25.320;2023-06-10T02:36:16;98995.09;;;19.01;58.63
73501;BME280;61721;42.206;25.320;2023-06-10T02:38:53;99003.63;;;18.93;58.77
73501;BME280;61721;42.206;25.320;2023-06-10T02:41:32;99004.47;;;18.93;58.62
73501;BME280;61721;42.206;25.320;2023-06-10T02:44:16;98997.34;;;18.92;59.07
73501;BME280;61721;42.206;25.320;2023-06-10T02:46:52;99001.25;;;18.96;58.65
73501;BME280;61721;42.206;25.320;2023-06-10T02:49:28;99001.84;;;18.98;58.69
73501;BME280;61721;42.206;25.320;2023-06-10T02:52:05;98999.00;;;18.93;59.04
73501;BME280;61721;42.206;25.320;2023-06-10T02:54:43;99012.56;;;19.11;58.93
73501;BME280;61721;42.206;25.320;2023-06-10T02:57:22;99004.38;;;19.11;59.09
73501;BME280;61721;42.206;25.320;2023-06-10T02:59:58;99000.44;;;19.07;58.92
73501;BME280;61721;42.206;25.320;2023-06-10T03:02:37;98999.03;;;19.05;59.01
73501;BME280;61721;42.206;25.320;2023-06-10T03:05:14;99008.41;;;19.09;59.29
73501;BME280;61721;42.206;25.320;2023-06-10T03:07:49;99003.91;;;19.14;58.78
73501;BME280;61721;42.206;25.320;2023-06-10T03:10:25;99004.72;;;19.27;59.33
73501;BME280;61721;42.206;25.320;2023-06-10T03:13:04;99010.66;;;19.12;59.59
73501;BME280;61721;42.206;25.320;2023-06-10T03:15:42;99008.34;;;18.86;60.80
73501;BME280;61721;42.206;25.320;2023-06-10T03:18:18;99005.53;;;19.04;60.18
73501;BME280;61721;42.206;25.320;2023-06-10T03:20:56;99006.25;;;19.11;60.18
73501;BME280;61721;42.206;25.320;2023-06-10T03:23:32;99014.47;;;19.23;60.48
73501;BME280;61721;42.206;25.320;2023-06-10T03:26:08;99008.03;;;19.05;60.61
73501;BME280;61721;42.206;25.320;2023-06-10T03:28:49;99005.72;;;18.79;61.60
73501;BME280;61721;42.206;25.320;2023-06-10T03:31:25;99006.44;;;18.74;61.49
73501;BME280;61721;42.206;25.320;2023-06-10T03:34:01;99017.91;;;19.18;60.95
73501;BME280;61721;42.206;25.320;2023-06-10T03:36:37;99017.56;;;19.38;60.17
73501;BME280;61721;42.206;25.320;2023-06-10T03:39:14;99009.63;;;19.60;59.72
73501;BME280;61721;42.206;25.320;2023-06-10T03:41:57;99015.66;;;19.50;59.51
73501;BME280;61721;42.206;25.320;2023-06-10T03:44:36;99010.34;;;19.55;59.93
73501;BME280;61721;42.206;25.320;2023-06-10T03:47:12;99011.50;;;19.36;60.18
73501;BME280;61721;42.206;25.320;2023-06-10T03:49:48;99007.00;;;19.41;59.82
73501;BME280;61721;42.206;25.320;2023-06-10T03:52:24;99007.59;;;19.32;60.72
73501;BME280;61721;42.206;25.320;2023-06-10T03:55:00;99011.66;;;19.53;59.80
73501;BME280;61721;42.206;25.320;2023-06-10T03:57:37;99011.38;;;19.42;60.48
73501;BME280;61721;42.206;25.320;2023-06-10T04:00:17;99016.00;;;19.30;61.03
73501;BME280;61721;42.206;25.320;2023-06-10T04:02:53;99024.91;;;19.49;60.96
73501;BME280;61721;42.206;25.320;2023-06-10T04:05:30;99017.69;;;19.78;60.41
73501;BME280;61721;42.206;25.320;2023-06-10T04:08:06;99005.94;;;19.66;60.68
73501;BME280;61721;42.206;25.320;2023-06-10T04:10:42;99001.44;;;19.60;61.44
73501;BME280;61721;42.206;25.320;2023-06-10T04:13:17;99002.00;;;19.73;61.52
73501;BME280;61721;42.206;25.320;2023-06-10T04:15:56;99000.00;;;19.34;62.56
73501;BME280;61721;42.206;25.320;2023-06-10T04:18:32;98998.44;;;19.38;62.97
73501;BME280;61721;42.206;25.320;2023-06-10T04:21:09;99004.97;;;19.37;63.71
73501;BME280;61721;42.206;25.320;2023-06-10T04:23:45;99001.06;;;19.68;62.88
73501;BME280;61721;42.206;25.320;2023-06-10T04:26:21;99004.34;;;19.93;62.33
73501;BME280;61721;42.206;25.320;2023-06-10T04:28:57;99002.22;;;19.84;62.85
73501;BME280;61721;42.206;25.320;2023-06-10T04:31:36;99002.25;;;19.72;63.84
73501;BME280;61721;42.206;25.320;2023-06-10T04:34:13;99001.84;;;19.92;63.56
73501;BME280;61721;42.206;25.320;2023-06-10T04:36:48;99004.34;;;19.93;63.48
73501;BME280;61721;42.206;25.320;2023-06-10T04:39:24;98992.69;;;19.98;63.07
73501;BME280;61721;42.206;25.320;2023-06-10T04:42:00;98997.69;;;20.01;63.55
73501;BME280;61721;42.206;25.320;2023-06-10T04:44:44;98993.00;;;20.13;62.87
73501;BME280;61721;42.206;25.320;2023-06-10T04:47:22;98996.91;;;20.17;63.12
73501;BME280;61721;42.206;25.320;2023-06-10T04:49:58;99000.09;;;20.26;63.27
73501;BME280;61721;42.206;25.320;2023-06-10T04:52:36;98993.41;;;20.33;63.07
73501;BME280;61721;42.206;25.320;2023-06-10T04:55:13;99000.28;;;20.48;62.93
73501;BME280;61721;42.206;25.320;2023-06-10T04:57:49;99002.72;;;20.78;62.42
73501;BME280;61721;42.206;25.320;2023-06-10T05:00:26;98999.16;;;20.77;63.04
73501;BME280;61721;42.206;25.320;2023-06-10T05:03:04;98988.22;;;20.77;63.17
73501;BME280;61721;42.206;25.320;2023-06-10T05:05:40;98997.59;;;20.98;63.12
73501;BME280;61721;42.206;25.320;2023-06-10T05:08:17;98996.91;;;20.91;63.04
73501;BME280;61721;42.206;25.320;2023-06-10T05:10:54;98999.81;;;21.01;63.26
73501;BME280;61721;42.206;25.320;2023-06-10T05:13:30;99000.97;;;20.88;64.05
73501;BME280;61721;42.206;25.320;2023-06-10T05:16:07;99003.56;;;21.12;62.76
73501;BME280;61721;42.206;25.320;2023-06-10T05:18:45;98997.00;;;21.13;63.12
73501;BME280;61721;42.206;25.320;2023-06-10T05:21:23;99008.63;;;21.20;62.74
73501;BME280;61721;42.206;25.320;2023-06-10T05:23:58;99006.78;;;20.75;64.10
73501;BME280;61721;42.206;25.320;2023-06-10T05:26:34;99008.78;;;21.13;62.66
73501;BME280;61721;42.206;25.320;2023-06-10T05:29:11;99004.97;;;20.97;63.39
73501;BME280;61721;42.206;25.320;2023-06-10T05:31:47;98999.31;;;21.21;62.74
73501;BME280;61721;42.206;25.320;2023-06-10T05:34:26;98999.50;;;20.97;63.54
73501;BME280;61721;42.206;25.320;2023-06-10T05:37:03;98996.56;;;20.87;63.97
73501;BME280;61721;42.206;25.320;2023-06-10T05:39:39;98992.59;;;20.61;63.96
73501;BME280;61721;42.206;25.320;2023-06-10T05:42:22;99000.16;;;20.88;62.60
73501;BME280;61721;42.206;25.320;2023-06-10T05:44:57;98996.16;;;20.95;62.61
73501;BME280;61721;42.206;25.320;2023-06-10T05:47:34;98996.81;;;20.52;63.74
73501;BME280;61721;42.206;25.320;2023-06-10T05:50:13;98994.00;;;20.97;62.88
73501;BME280;61721;42.206;25.320;2023-06-10T05:52:50;99002.00;;;21.32;61.52
73501;BME280;61721;42.206;25.320;2023-06-10T05:55:26;98992.72;;;21.33;61.61
73501;BME280;61721;42.206;25.320;2023-06-10T05:58:02;99003.50;;;21.40;60.73
73501;BME280;61721;42.206;25.320;2023-06-10T06:00:39;98999.25;;;21.16;62.33
73501;BME280;61721;42.206;25.320;2023-06-10T06:03:16;99005.94;;;21.58;60.31
73501;BME280;61721;42.206;25.320;2023-06-10T06:05:55;99010.28;;;21.37;60.84
73501;BME280;61721;42.206;25.320;2023-06-10T06:08:31;99006.59;;;21.65;60.89
73501;BME280;61721;42.206;25.320;2023-06-10T06:11:07;99014.44;;;21.40;61.80
73501;BME280;61721;42.206;25.320;2023-06-10T06:13:44;99007.91;;;21.80;60.58
73501;BME280;61721;42.206;25.320;2023-06-10T06:16:20;99008.31;;;21.33;62.24
73501;BME280;61721;42.206;25.320;2023-06-10T06:18:57;99007.75;;;21.69;61.46
73501;BME280;61721;42.206;25.320;2023-06-10T06:21:35;99002.03;;;21.93;61.37
73501;BME280;61721;42.206;25.320;2023-06-10T06:24:12;99011.75;;;21.62;61.65
73501;BME280;61721;42.206;25.320;2023-06-10T06:26:47;98999.25;;;21.16;63.18
73501;BME280;61721;42.206;25.320;2023-06-10T06:29:23;99010.78;;;21.51;62.61
73501;BME280;61721;42.206;25.320;2023-06-10T06:31:58;99011.03;;;21.33;62.69
73501;BME280;61721;42.206;25.320;2023-06-10T06:34:35;99005.03;;;21.53;61.84
73501;BME280;61721;42.206;25.320;2023-06-10T06:37:13;98995.03;;;21.25;62.33
73501;BME280;61721;42.206;25.320;2023-06-10T06:39:50;99012.00;;;21.60;63.14
73501;BME280;61721;42.206;25.320;2023-06-10T06:42:26;99001.63;;;22.23;60.12
73501;BME280;61721;42.206;25.320;2023-06-10T06:45:10;99002.06;;;22.37;60.38
73501;BME280;61721;42.206;25.320;2023-06-10T06:47:46;99000.81;;;22.49;59.38
73501;BME280;61721;42.206;25.320;2023-06-10T06:50:23;98987.72;;;22.08;59.16
73501;BME280;61721;42.206;25.320;2023-06-10T06:53:02;98989.22;;;22.42;58.92
73501;BME280;61721;42.206;25.320;2023-06-10T06:55:38;98994.19;;;22.45;59.11
73501;BME280;61721;42.206;25.320;2023-06-10T06:58:13;98993.53;;;22.87;58.05
73501;BME280;61721;42.206;25.320;2023-06-10T07:00:49;98991.19;;;22.74;57.61
73501;BME280;61721;42.206;25.320;2023-06-10T07:03:24;98984.91;;;22.78;56.80
73501;BME280;61721;42.206;25.320;2023-06-10T07:06:00;98985.69;;;23.01;57.08
73501;BME280;61721;42.206;25.320;2023-06-10T07:08:39;98985.34;;;22.65;57.14
73501;BME280;61721;42.206;25.320;2023-06-10T07:11:15;98983.41;;;23.24;56.05
73501;BME280;61721;42.206;25.320;2023-06-10T07:13:50;98983.00;;;23.48;55.56
73501;BME280;61721;42.206;25.320;2023-06-10T07:16:27;98981.88;;;23.39;55.43
73501;BME280;61721;42.206;25.320;2023-06-10T07:19:03;98976.06;;;23.35;55.25
73501;BME280;61721;42.206;25.320;2023-06-10T07:21:39;98986.72;;;23.69;54.98
73501;BME280;61721;42.206;25.320;2023-06-10T07:24:18;98984.59;;;23.34;53.80
73501;BME280;61721;42.206;25.320;2023-06-10T07:26:54;98983.00;;;23.06;53.42
73501;BME280;61721;42.206;25.320;2023-06-10T07:29:30;98977.84;;;23.14;53.58
73501;BME280;61721;42.206;25.320;2023-06-10T07:32:08;98980.25;;;23.06;54.19
73501;BME280;61721;42.206;25.320;2023-06-10T07:34:45;98968.34;;;22.95;55.41
73501;BME280;61721;42.206;25.320;2023-06-10T07:37:21;98978.03;;;23.40;54.52
73501;BME280;61721;42.206;25.320;2023-06-10T07:39:59;98978.41;;;23.16;54.24
73501;BME280;61721;42.206;25.320;2023-06-10T07:42:42;98976.22;;;23.55;54.09
73501;BME280;61721;42.206;25.320;2023-06-10T07:45:17;98977.88;;;23.61;54.83
73501;BME280;61721;42.206;25.320;2023-06-10T07:47:54;98972.88;;;23.53;51.96
73501;BME280;61721;42.206;25.320;2023-06-10T07:50:37;98976.66;;;23.89;52.43
73501;BME280;61721;42.206;25.320;2023-06-10T07:53:12;98971.66;;;24.39;52.04
73501;BME280;61721;42.206;25.320;2023-06-10T07:55:51;98975.75;;;24.26;51.35
73501;BME280;61721;42.206;25.320;2023-06-10T07:58:28;98974.72;;;24.52;51.95
73501;BME280;61721;42.206;25.320;2023-06-10T08:01:03;98962.63;;;24.69;49.94
73501;BME280;61721;42.206;25.320;2023-06-10T08:03:39;98968.91;;;24.49;51.30
73501;BME280;61721;42.206;25.320;2023-06-10T08:06:15;98963.44;;;24.69;50.36
73501;BME280;61721;42.206;25.320;2023-06-10T08:08:51;98962.31;;;24.55;50.38
73501;BME280;61721;42.206;25.320;2023-06-10T08:11:30;98972.59;;;25.05;49.16
73501;BME280;61721;42.206;25.320;2023-06-10T08:14:06;98961.84;;;25.04;50.66
73501;BME280;61721;42.206;25.320;2023-06-10T08:16:43;98957.97;;;25.30;49.35
73501;BME280;61721;42.206;25.320;2023-06-10T08:19:20;98968.94;;;25.50;47.52
73501;BME280;61721;42.206;25.320;2023-06-10T08:21:55;98971.13;;;25.59;47.44
73501;BME280;61721;42.206;25.320;2023-06-10T08:24:32;98966.25;;;25.15;47.81
73501;BME280;61721;42.206;25.320;2023-06-10T08:27:11;98962.06;;;25.53;46.03
73501;BME280;61721;42.206;25.320;2023-06-10T08:29:48;98964.47;;;25.85;47.03
73501;BME280;61721;42.206;25.320;2023-06-10T08:32:24;98955.38;;;25.84;45.23
73501;BME280;61721;42.206;25.320;2023-06-10T08:34:59;98949.97;;;26.13;44.50
73501;BME280;61721;42.206;25.320;2023-06-10T08:37:36;98959.84;;;26.25;46.42
73501;BME280;61721;42.206;25.320;2023-06-10T08:40:12;98954.09;;;26.70;45.29
73501;BME280;61721;42.206;25.320;2023-06-10T08:43:03;98943.84;;;26.32;44.78
73501;BME280;61721;42.206;25.320;2023-06-10T08:45:42;98949.06;;;26.33;44.71
73501;BME280;61721;42.206;25.320;2023-06-10T08:48:23;98939.59;;;26.49;43.22
73501;BME280;61721;42.206;25.320;2023-06-10T08:51:04;98937.97;;;26.43;43.92
73501;BME280;61721;42.206;25.320;2023-06-10T08:53:48;98934.97;;;26.79;43.48
73501;BME280;61721;42.206;25.320;2023-06-10T08:56:27;98926.88;;;26.88;42.54
73501;BME280;61721;42.206;25.320;2023-06-10T08:59:06;98937.44;;;26.80;43.42
73501;BME280;61721;42.206;25.320;2023-06-10T09:01:43;98929.19;;;27.09;44.03
73501;BME280;61721;42.206;25.320;2023-06-10T09:04:20;98923.91;;;27.13;43.89
73501;BME280;61721;42.206;25.320;2023-06-10T09:06:56;98921.00;;;26.94;42.61
73501;BME280;61721;42.206;25.320;2023-06-10T09:09:34;98915.88;;;26.82;42.85
73501;BME280;61721;42.206;25.320;2023-06-10T09:12:12;98910.53;;;27.25;41.83
73501;BME280;61721;42.206;25.320;2023-06-10T09:14:51;98902.53;;;26.90;42.05
73501;BME280;61721;42.206;25.320;2023-06-10T09:17:28;98902.69;;;27.08;43.09
73501;BME280;61721;42.206;25.320;2023-06-10T09:20:06;98906.41;;;27.23;41.97
73501;BME280;61721;42.206;25.320;2023-06-10T09:22:43;98907.44;;;27.56;41.36
73501;BME280;61721;42.206;25.320;2023-06-10T09:25:19;98895.97;;;27.43;40.81
73501;BME280;61721;42.206;25.320;2023-06-10T09:27:55;98898.31;;;27.31;40.86
73501;BME280;61721;42.206;25.320;2023-06-10T09:30:33;98895.94;;;27.72;41.08
73501;BME280;61721;42.206;25.320;2023-06-10T09:33:12;98889.75;;;27.99;40.51
73501;BME280;61721;42.206;25.320;2023-06-10T09:35:49;98881.28;;;27.72;40.86
73501;BME280;61721;42.206;25.320;2023-06-10T09:38:30;98889.31;;;27.92;40.23
73501;BME280;61721;42.206;25.320;2023-06-10T09:41:07;98895.47;;;28.08;39.89
73501;BME280;61721;42.206;25.320;2023-06-10T09:43:43;98890.97;;;27.45;41.55
73501;BME280;61721;42.206;25.320;2023-06-10T09:46:31;98883.84;;;27.87;40.70
73501;BME280;61721;42.206;25.320;2023-06-10T09:49:08;98881.34;;;28.28;39.70
73501;BME280;61721;42.206;25.320;2023-06-10T09:51:50;98880.59;;;28.23;40.31
73501;BME280;61721;42.206;25.320;2023-06-10T09:54:31;98876.84;;;27.71;41.07
73501;BME280;61721;42.206;25.320;2023-06-10T09:57:08;98889.81;;;27.23;43.07
73501;BME280;61721;42.206;25.320;2023-06-10T09:59:44;98880.38;;;27.76;42.68
73501;BME280;61721;42.206;25.320;2023-06-10T10:02:24;98879.50;;;27.81;43.01
73501;BME280;61721;42.206;25.320;2023-06-10T10:05:03;98884.25;;;27.28;42.94
73501;BME280;61721;42.206;25.320;2023-06-10T10:07:39;98886.44;;;27.02;43.56
73501;BME280;61721;42.206;25.320;2023-06-10T10:10:17;98880.47;;;27.19;44.04
73501;BME280;61721;42.206;25.320;2023-06-10T10:12:54;98877.78;;;27.37;43.06
73501;BME280;61721;42.206;25.320;2023-06-10T10:15:32;98878.78;;;27.46;42.07
73501;BME280;61721;42.206;25.320;2023-06-10T10:18:17;98878.16;;;27.02;42.34
73501;BME280;61721;42.206;25.320;2023-06-10T10:21:05;98890.44;;;27.43;41.95
73501;BME280;61721;42.206;25.320;2023-06-10T10:23:49;98886.94;;;27.62;41.36
73501;BME280;61721;42.206;25.320;2023-06-10T10:26:30;98882.91;;;28.16;39.04
73501;BME280;61721;42.206;25.320;2023-06-10T10:29:13;98880.59;;;28.23;37.96
73501;BME280;61721;42.206;25.320;2023-06-10T10:31:51;98885.97;;;28.14;37.24
73501;BME280;61721;42.206;25.320;2023-06-10T10:34:35;98887.03;;;28.56;37.44
73501;BME280;61721;42.206;25.320;2023-06-10T10:37:13;98881.66;;;28.27;37.31
73501;BME280;61721;42.206;25.320;2023-06-10T10:39:48;98878.63;;;28.04;36.85
73501;BME280;61721;42.206;25.320;2023-06-10T10:42:33;98884.06;;;28.33;36.44
73501;BME280;61721;42.206;25.320;2023-06-10T10:45:10;98872.69;;;28.35;36.45
73501;BME280;61721;42.206;25.320;2023-06-10T10:47:52;98879.63;;;28.32;35.67
73501;BME280;61721;42.206;25.320;2023-06-10T10:50:32;98878.94;;;28.22;35.48
73501;BME280;61721;42.206;25.320;2023-06-10T10:53:09;98872.34;;;28.18;36.10
73501;BME280;61721;42.206;25.320;2023-06-10T10:55:58;98878.13;;;28.40;35.54
73501;BME280;61721;42.206;25.320;2023-06-10T10:58:34;98877.56;;;28.00;35.49
73501;BME280;61721;42.206;25.320;2023-06-10T11:01:11;98873.06;;;27.86;36.29
73501;BME280;61721;42.206;25.320;2023-06-10T11:03:50;98875.78;;;27.91;35.41
73501;BME280;61721;42.206;25.320;2023-06-10T11:06:28;98876.38;;;28.06;35.77
73501;BME280;61721;42.206;25.320;2023-06-10T11:09:26;98874.66;;;28.10;36.49
73501;BME280;61721;42.206;25.320;2023-06-10T11:12:05;98873.91;;;28.05;37.02
73501;BME280;61721;42.206;25.320;2023-06-10T11:14:54;98883.69;;;28.40;37.20
73501;BME280;61721;42.206;25.320;2023-06-10T11:17:31;98874.81;;;28.00;36.29
73501;BME280;61721;42.206;25.320;2023-06-10T11:20:08;98873.75;;;27.96;36.63
73501;BME280;61721;42.206;25.320;2023-06-10T11:23:03;98868.78;;;28.36;37.12
73501;BME280;61721;42.206;25.320;2023-06-10T11:25:39;98870.72;;;28.54;36.88
73501;BME280;61721;42.206;25.320;2023-06-10T11:28:22;98869.59;;;28.88;36.88
73501;BME280;61721;42.206;25.320;2023-06-10T11:31:03;98866.53;;;28.70;35.60
73501;BME280;61721;42.206;25.320;2023-06-10T11:33:39;98863.97;;;28.74;35.82
73501;BME280;61721;42.206;25.320;2023-06-10T11:36:17;98863.16;;;28.73;34.55
73501;BME280;61721;42.206;25.320;2023-06-10T11:38:57;98858.47;;;29.20;34.34
73501;BME280;61721;42.206;25.320;2023-06-10T11:41:35;98860.47;;;28.87;34.34
73501;BME280;61721;42.206;25.320;2023-06-10T11:44:12;98851.47;;;28.76;33.45
73501;BME280;61721;42.206;25.320;2023-06-10T11:46:49;98850.50;;;28.67;34.85
73501;BME280;61721;42.206;25.320;2023-06-10T11:49:25;98848.59;;;29.14;34.10
73501;BME280;61721;42.206;25.320;2023-06-10T11:52:04;98846.56;;;29.20;33.36
73501;BME280;61721;42.206;25.320;2023-06-10T11:54:53;98845.59;;;28.97;34.19
73501;BME280;61721;42.206;25.320;2023-06-10T11:57:29;98846.38;;;28.84;35.08
73501;BME280;61721;42.206;25.320;2023-06-10T12:00:06;98837.06;;;28.61;35.11
73501;BME280;61721;42.206;25.320;2023-06-10T12:02:43;98840.94;;;28.46;34.70
73501;BME280;61721;42.206;25.320;2023-06-10T12:05:19;98836.50;;;28.07;35.26
73501;BME280;61721;42.206;25.320;2023-06-10T12:08:08;98842.28;;;28.30;35.06
73501;BME280;61721;42.206;25.320;2023-06-10T12:10:47;98841.16;;;28.50;34.75
73501;BME280;61721;42.206;25.320;2023-06-10T12:13:26;98837.03;;;28.09;35.58
73501;BME280;61721;42.206;25.320;2023-06-10T12:16:09;98833.16;;;28.62;34.69
73501;BME280;61721;42.206;25.320;2023-06-10T12:18:47;98840.09;;;28.46;34.99
73501;BME280;61721;42.206;25.320;2023-06-10T12:21:24;98831.41;;;28.52;34.35
73501;BME280;61721;42.206;25.320;2023-06-10T12:24:04;98828.69;;;28.80;34.23
73501;BME280;61721;42.206;25.320;2023-06-10T12:26:44;98835.97;;;28.75;34.82
73501;BME280;61721;42.206;25.320;2023-06-10T12:29:23;98829.97;;;28.87;34.39
73501;BME280;61721;42.206;25.320;2023-06-10T12:32:03;98833.81;;;28.72;33.36
73501;BME280;61721;42.206;25.320;2023-06-10T12:34:40;98838.41;;;28.96;32.91
73501;BME280;61721;42.206;25.320;2023-06-10T12:37:16;98840.03;;;28.83;32.23
73501;BME280;61721;42.206;25.320;2023-06-10T12:39:52;98830.81;;;28.69;32.90
73501;BME280;61721;42.206;25.320;2023-06-10T12:42:32;98826.72;;;28.34;32.61
73501;BME280;61721;42.206;25.320;2023-06-10T12:45:26;98828.44;;;28.62;32.63
73501;BME280;61721;42.206;25.320;2023-06-10T12:48:06;98823.31;;;28.56;33.42
73501;BME280;61721;42.206;25.320;2023-06-10T12:50:43;98815.69;;;28.48;32.97
73501;BME280;61721;42.206;25.320;2023-06-10T12:53:20;98819.31;;;29.08;32.17
73501;BME280;61721;42.206;25.320;2023-06-10T12:55:57;98819.91;;;28.91;32.54
73501;BME280;61721;42.206;25.320;2023-06-10T12:58:37;98817.03;;;28.83;33.05
73501;BME280;61721;42.206;25.320;2023-06-10T13:01:14;98817.88;;;28.97;32.54
73501;BME280;61721;42.206;25.320;2023-06-10T13:03:50;98818.88;;;28.87;33.15
73501;BME280;61721;42.206;25.320;2023-06-10T13:06:26;98818.78;;;28.92;32.80
73501;BME280;61721;42.206;25.320;2023-06-10T13:09:04;98810.81;;;28.58;33.29
73501;BME280;61721;42.206;25.320;2023-06-10T13:11:43;98812.13;;;28.61;34.89
73501;BME280;61721;42.206;25.320;2023-06-10T13:14:21;98810.31;;;28.00;37.48
73501;BME280;61721;42.206;25.320;2023-06-10T13:16:58;98820.13;;;28.11;38.04
73501;BME280;61721;42.206;25.320;2023-06-10T13:19:34;98815.13;;;28.13;36.99
73501;BME280;61721;42.206;25.320;2023-06-10T13:22:10;98815.25;;;28.03;37.21
73501;BME280;61721;42.206;25.320;2023-06-10T13:24:46;98817.19;;;28.72;35.52
73501;BME280;61721;42.206;25.320;2023-06-10T13:27:22;98814.53;;;28.81;34.45
73501;BME280;61721;42.206;25.320;2023-06-10T13:30:01;98815.94;;;29.11;34.25
73501;BME280;61721;42.206;25.320;2023-06-10T13:32:38;98820.06;;;29.14;33.43
73501;BME280;61721;42.206;25.320;2023-06-10T13:35:15;98810.34;;;29.44;33.17
73501;BME280;61721;42.206;25.320;2023-06-10T13:37:51;98814.22;;;29.70;33.00
73501;BME280;61721;42.206;25.320;2023-06-10T13:40:27;98810.22;;;29.62;32.44
73501;BME280;61721;42.206;25.320;2023-06-10T13:43:10;98809.97;;;28.90;31.75
73501;BME280;61721;42.206;25.320;2023-06-10T13:45:49;98813.91;;;29.58;31.44